Time;durP1;ratioP1;P1;durP2;ratioP2;P2;SDS_P1;SDS_P2;PMS_P1;PMS_P2;Temp;Humidity;BMP_temperature;BMP_pressure;BME280_temperature;BME280_humidity;BME280_pressure;Samples;Min_cycle;Max_cycle;Signal;HPM_P1;HPM_P2
2021/11/21 00:02:08;;;;;;;51.17;26.92;;;;;;;;;;5053022;28;20056;-72
2021/11/21 00:04:35;;;;;;;47.35;24.63;;;;;;;;;;5033737;28;20067;-72
2021/11/21 00:07:01;;;;;;;50.00;25.90;;;;;;;;;;5055577;28;20147;-72
2021/11/21 00:09:28;;;;;;;42.83;24.85;;;;;;;;;;5051252;28;20056;-72
2021/11/21 00:11:54;;;;;;;46.70;24.08;;;;;;;;;;5057000;28;20049;-72
2021/11/21 00:14:20;;;;;;;44.70;24.27;;;;;;;;;;5049609;28;20068;-71
2021/11/21 00:16:47;;;;;;;46.03;24.13;;;;;;;;;;5034286;28;20547;-71
2021/11/21 00:19:13;;;;;;;50.28;25.80;;;;;;;;;;5043425;28;20044;-71
2021/11/21 00:21:39;;;;;;;42.55;24.35;;;;;;;;;;5054249;28;20055;-72
2021/11/21 00:24:06;;;;;;;41.40;22.95;;;;;;;;;;5056065;28;20049;-71
2021/11/21 00:26:32;;;;;;;42.92;24.13;;;;;;;;;;5049420;28;20221;-71
2021/11/21 00:28:59;;;;;;;47.30;23.77;;;;;;;;;;5057371;28;20044;-71
2021/11/21 00:31:25;;;;;;;40.83;21.88;;;;;;;;;;5026353;28;20052;-71
2021/11/21 00:33:51;;;;;;;43.70;24.05;;;;;;;;;;5050707;28;20171;-71
2021/11/21 00:36:18;;;;;;;47.38;25.13;;;;;;;;;;5048569;28;20056;-70
2021/11/21 00:38:44;;;;;;;42.97;22.77;;;;;;;;;;5056435;28;20418;-71
2021/11/21 00:41:11;;;;;;;42.20;23.58;;;;;;;;;;5055286;28;20057;-71
2021/11/21 00:43:37;;;;;;;46.83;24.45;;;;;;;;;;5044258;28;20052;-72
2021/11/21 00:46:03;;;;;;;42.65;22.65;;;;;;;;;;5051406;28;20052;-71
2021/11/21 00:48:30;;;;;;;43.75;23.73;;;;;;;;;;5044873;28;20460;-71
2021/11/21 00:51:00;;;;;;;41.05;22.92;;;;;;;;;;5054005;28;20508;-72
2021/11/21 00:53:27;;;;;;;42.63;23.15;;;;;;;;;;5046819;28;20052;-70
2021/11/21 00:56:01;;;;;;;40.90;22.38;;;;;;;;;;5054619;28;20057;-72
2021/11/21 00:58:28;;;;;;;39.15;22.45;;;;;;;;;;5050731;28;20457;-72
2021/11/21 01:00:54;;;;;;;41.53;22.13;;;;;;;;;;5040953;28;20048;-72
2021/11/21 01:03:22;;;;;;;42.38;24.02;;;;;;;;;;5054106;28;20434;-71
2021/11/21 01:05:49;;;;;;;40.08;22.88;;;;;;;;;;5045155;28;20052;-71
2021/11/21 01:08:16;;;;;;;39.72;22.65;;;;;;;;;;5053000;28;20048;-71
2021/11/21 01:10:43;;;;;;;39.13;22.50;;;;;;;;;;5047523;28;20048;-71
2021/11/21 01:13:10;;;;;;;39.22;21.73;;;;;;;;;;5034847;28;20068;-71
2021/11/21 01:15:37;;;;;;;43.67;23.67;;;;;;;;;;5052083;28;20045;-71
2021/11/21 01:18:05;;;;;;;44.08;22.92;;;;;;;;;;5047608;28;20080;-71
2021/11/21 01:20:32;;;;;;;40.75;23.25;;;;;;;;;;5054404;28;20464;-71
2021/11/21 01:22:59;;;;;;;43.03;22.67;;;;;;;;;;5045257;28;20520;-71
2021/11/21 01:25:25;;;;;;;42.92;23.70;;;;;;;;;;5054166;28;20082;-72
2021/11/21 01:27:53;;;;;;;42.20;22.80;;;;;;;;;;5021919;28;20059;-72
2021/11/21 01:30:23;;;;;;;40.25;22.58;;;;;;;;;;5054748;28;20365;-72
2021/11/21 01:32:50;;;;;;;40.20;21.58;;;;;;;;;;5054069;28;20055;-72
2021/11/21 01:35:16;;;;;;;38.53;20.33;;;;;;;;;;5048178;28;20079;-71
2021/11/21 01:37:42;;;;;;;40.28;21.73;;;;;;;;;;5054010;28;20435;-72
2021/11/21 01:40:10;;;;;;;37.90;21.25;;;;;;;;;;5039512;28;20048;-72
2021/11/21 01:42:37;;;;;;;40.70;22.53;;;;;;;;;;5049874;28;20049;-71
2021/11/21 01:45:05;;;;;;;39.80;21.48;;;;;;;;;;5045993;28;20431;-72
2021/11/21 01:47:31;;;;;;;39.92;22.33;;;;;;;;;;5055313;28;20086;-72
2021/11/21 01:49:58;;;;;;;39.10;20.52;;;;;;;;;;5055376;28;20517;-72
2021/11/21 01:52:24;;;;;;;42.45;21.88;;;;;;;;;;5043295;28;20052;-72
2021/11/21 01:54:50;;;;;;;43.03;23.45;;;;;;;;;;5049183;28;20044;-72
2021/11/21 01:57:18;;;;;;;39.05;22.25;;;;;;;;;;5047573;28;20056;-72
2021/11/21 01:59:44;;;;;;;43.60;22.83;;;;;;;;;;5055291;28;20052;-72
2021/11/21 02:02:10;;;;;;;39.38;22.65;;;;;;;;;;5030378;28;20048;-72
2021/11/21 02:04:37;;;;;;;39.75;22.02;;;;;;;;;;5054448;28;20608;-72
2021/11/21 02:07:03;;;;;;;40.67;22.08;;;;;;;;;;5050229;28;20048;-72
2021/11/21 02:09:29;;;;;;;41.92;23.20;;;;;;;;;;5042023;28;20494;-72
2021/11/21 02:11:56;;;;;;;41.00;22.55;;;;;;;;;;5054108;28;20060;-72
2021/11/21 02:14:23;;;;;;;44.50;23.75;;;;;;;;;;5045806;28;20052;-72
2021/11/21 02:16:49;;;;;;;44.45;23.38;;;;;;;;;;5054932;28;20059;-72
2021/11/21 02:19:17;;;;;;;42.10;22.77;;;;;;;;;;5047074;28;20052;-72
2021/11/21 02:21:43;;;;;;;44.88;22.70;;;;;;;;;;5046808;28;20675;-72
2021/11/21 02:24:10;;;;;;;43.60;23.38;;;;;;;;;;5052769;28;20052;-72
2021/11/21 02:26:36;;;;;;;42.83;23.40;;;;;;;;;;5047095;28;20357;-72
2021/11/21 02:29:02;;;;;;;46.05;22.30;;;;;;;;;;5058510;28;21216;-72
2021/11/21 02:31:29;;;;;;;42.83;23.35;;;;;;;;;;5041340;28;20059;-72
2021/11/21 02:33:55;;;;;;;47.95;24.00;;;;;;;;;;5054823;28;20055;-72
2021/11/21 02:36:23;;;;;;;44.80;24.40;;;;;;;;;;5044851;28;20690;-72
2021/11/21 02:38:49;;;;;;;42.90;22.67;;;;;;;;;;5058056;28;20057;-72
2021/11/21 02:41:15;;;;;;;51.53;24.25;;;;;;;;;;5059642;28;20382;-72
2021/11/21 02:43:43;;;;;;;48.05;23.38;;;;;;;;;;5063276;28;20068;-72
2021/11/21 02:46:10;;;;;;;46.83;23.58;;;;;;;;;;5071059;28;20130;-72
2021/11/21 02:48:36;;;;;;;51.45;24.52;;;;;;;;;;5059810;28;20048;-72
2021/11/21 02:51:05;;;;;;;49.10;23.90;;;;;;;;;;5064549;28;20065;-72
2021/11/21 02:53:33;;;;;;;49.50;23.88;;;;;;;;;;5063737;28;20477;-72
2021/11/21 02:56:00;;;;;;;48.72;23.80;;;;;;;;;;5070315;28;20135;-72
2021/11/21 02:58:27;;;;;;;52.17;24.90;;;;;;;;;;5070562;28;20132;-72
2021/11/21 03:00:54;;;;;;;45.33;22.98;;;;;;;;;;5044730;28;20040;-72
2021/11/21 03:03:21;;;;;;;49.40;24.80;;;;;;;;;;5065882;28;20048;-71
2021/11/21 03:05:47;;;;;;;49.15;24.00;;;;;;;;;;5059120;28;20052;-71
2021/11/21 03:08:15;;;;;;;48.92;24.73;;;;;;;;;;5053209;28;20082;-71
2021/11/21 03:10:42;;;;;;;50.97;24.02;;;;;;;;;;5063252;28;20079;-71
2021/11/21 03:13:08;;;;;;;54.35;25.10;;;;;;;;;;5070444;28;20738;-71
2021/11/21 03:15:35;;;;;;;49.20;24.65;;;;;;;;;;5066922;28;20059;-72
2021/11/21 03:18:02;;;;;;;51.75;24.60;;;;;;;;;;5060702;28;20060;-72
2021/11/21 03:20:29;;;;;;;51.70;25.30;;;;;;;;;;5069903;28;20782;-72
2021/11/21 03:22:56;;;;;;;50.38;26.10;;;;;;;;;;5063818;28;20067;-72
2021/11/21 03:25:23;;;;;;;53.63;26.48;;;;;;;;;;5070172;28;20061;-72
2021/11/21 03:27:51;;;;;;;54.03;24.45;;;;;;;;;;5063560;28;20048;-72
2021/11/21 03:30:19;;;;;;;52.20;25.33;;;;;;;;;;5050486;28;20044;-72
2021/11/21 03:32:46;;;;;;;51.72;25.05;;;;;;;;;;5058927;28;20059;-72
2021/11/21 03:35:12;;;;;;;52.88;24.85;;;;;;;;;;5069079;28;20129;-72
2021/11/21 03:37:39;;;;;;;59.13;26.15;;;;;;;;;;5069679;28;20320;-72
2021/11/21 03:40:07;;;;;;;53.10;24.30;;;;;;;;;;5062789;28;20057;-73
2021/11/21 03:42:33;;;;;;;51.85;24.02;;;;;;;;;;5070150;28;20055;-73
2021/11/21 03:45:00;;;;;;;50.08;24.25;;;;;;;;;;5057328;28;20807;-73
2021/11/21 03:47:26;;;;;;;52.35;24.98;;;;;;;;;;5069853;28;20048;-73
2021/11/21 03:49:52;;;;;;;52.92;24.58;;;;;;;;;;5063301;28;20048;-73
2021/11/21 03:52:19;;;;;;;48.72;24.05;;;;;;;;;;5067943;28;20059;-73
2021/11/21 03:54:45;;;;;;;47.90;23.25;;;;;;;;;;5069299;28;20131;-73
2021/11/21 03:57:11;;;;;;;55.00;23.88;;;;;;;;;;5059267;28;20052;-73
2021/11/21 03:59:38;;;;;;;57.03;25.80;;;;;;;;;;5064953;28;20561;-74
2021/11/21 04:02:04;;;;;;;52.83;24.80;;;;;;;;;;5063946;28;20045;-73
2021/11/21 04:04:32;;;;;;;54.40;24.13;;;;;;;;;;5070747;28;20098;-73
2021/11/21 04:06:59;;;;;;;56.78;25.50;;;;;;;;;;5063659;28;20248;-73
2021/11/21 04:09:25;;;;;;;54.45;24.67;;;;;;;;;;5070020;28;20416;-73
2021/11/21 04:11:52;;;;;;;48.10;23.88;;;;;;;;;;5062976;28;20131;-73
2021/11/21 04:14:18;;;;;;;51.83;23.88;;;;;;;;;;5059254;28;20044;-73
2021/11/21 04:16:45;;;;;;;51.17;23.98;;;;;;;;;;5069123;28;20478;-73
2021/11/21 04:19:11;;;;;;;49.78;23.95;;;;;;;;;;5062643;28;20049;-73
2021/11/21 04:21:38;;;;;;;50.10;23.55;;;;;;;;;;5069166;28;20409;-73
2021/11/21 04:24:05;;;;;;;50.08;23.17;;;;;;;;;;5060519;28;20079;-74
2021/11/21 04:26:32;;;;;;;52.92;23.58;;;;;;;;;;5064138;28;20049;-73
2021/11/21 04:28:58;;;;;;;49.33;22.40;;;;;;;;;;5069465;28;20052;-74
2021/11/21 04:31:24;;;;;;;49.75;24.08;;;;;;;;;;5063102;28;20421;-73
2021/11/21 04:33:51;;;;;;;46.22;23.25;;;;;;;;;;5069071;28;20052;-73
2021/11/21 04:36:17;;;;;;;50.10;23.90;;;;;;;;;;5062581;28;20076;-73
2021/11/21 04:38:43;;;;;;;51.58;23.73;;;;;;;;;;5064537;28;20071;-71
2021/11/21 04:41:11;;;;;;;49.00;23.52;;;;;;;;;;5058019;28;20048;-72
2021/11/21 04:43:37;;;;;;;52.70;24.27;;;;;;;;;;5068186;28;20052;-72
2021/11/21 04:46:04;;;;;;;44.97;20.50;;;;;;;;;;5069293;28;20075;-72
2021/11/21 04:48:31;;;;;;;49.97;23.20;;;;;;;;;;5062988;28;20071;-72
2021/11/21 04:50:59;;;;;;;51.20;23.90;;;;;;;;;;5066011;28;20139;-72
2021/11/21 04:53:26;;;;;;;49.38;23.02;;;;;;;;;;5057861;28;20071;-72
2021/11/21 04:55:52;;;;;;;48.42;21.02;;;;;;;;;;5063539;28;20811;-72
2021/11/21 04:58:19;;;;;;;43.38;20.33;;;;;;;;;;5062672;28;20059;-72
2021/11/21 05:00:45;;;;;;;43.53;21.48;;;;;;;;;;5068531;28;20057;-72
2021/11/21 05:03:12;;;;;;;48.67;21.98;;;;;;;;;;5065558;28;20094;-73
2021/11/21 05:05:38;;;;;;;41.92;21.02;;;;;;;;;;5064251;28;20049;-72
2021/11/21 05:08:07;;;;;;;42.80;21.25;;;;;;;;;;5044153;28;20142;-72
2021/11/21 05:10:33;;;;;;;46.60;22.48;;;;;;;;;;5061017;28;20059;-73
2021/11/21 05:13:00;;;;;;;39.03;19.13;;;;;;;;;;5068705;28;20490;-72
2021/11/21 05:15:31;;;;;;;40.25;20.73;;;;;;;;;;5062091;28;20048;-72
2021/11/21 05:17:57;;;;;;;38.80;19.20;;;;;;;;;;5068053;28;20048;-72
2021/11/21 05:20:23;;;;;;;35.95;17.85;;;;;;;;;;5057895;28;20056;-73
2021/11/21 05:22:50;;;;;;;37.45;19.02;;;;;;;;;;5048061;28;20053;-73
2021/11/21 05:25:16;;;;;;;38.33;17.90;;;;;;;;;;5068424;28;20525;-72
2021/11/21 05:27:44;;;;;;;38.22;18.77;;;;;;;;;;5061791;28;20501;-72
2021/11/21 05:30:10;;;;;;;37.42;16.92;;;;;;;;;;5067863;28;20489;-72
2021/11/21 05:32:36;;;;;;;32.00;15.98;;;;;;;;;;5040275;28;20056;-72
2021/11/21 05:35:03;;;;;;;36.15;17.55;;;;;;;;;;5064344;28;20421;-73
2021/11/21 05:37:29;;;;;;;29.63;15.95;;;;;;;;;;5061955;28;20045;-73
2021/11/21 05:39:55;;;;;;;35.35;16.65;;;;;;;;;;5066519;28;20055;-73
2021/11/21 05:42:22;;;;;;;29.88;15.05;;;;;;;;;;5067998;28;20052;-73
2021/11/21 05:44:48;;;;;;;29.45;15.68;;;;;;;;;;5061786;28;20048;-73
2021/11/21 05:47:14;;;;;;;29.48;14.50;;;;;;;;;;5063508;28;20390;-73
2021/11/21 05:49:41;;;;;;;26.80;13.55;;;;;;;;;;5056764;28;20057;-73
2021/11/21 05:52:07;;;;;;;27.42;13.75;;;;;;;;;;5065766;28;20052;-73
2021/11/21 05:54:33;;;;;;;29.75;14.20;;;;;;;;;;5062236;28;20900;-73
2021/11/21 05:57:00;;;;;;;25.75;13.65;;;;;;;;;;5067619;28;20488;-73
2021/11/21 05:59:26;;;;;;;25.75;12.80;;;;;;;;;;5068638;28;20102;-73
2021/11/21 06:01:52;;;;;;;22.00;12.60;;;;;;;;;;5053258;28;20554;-73
2021/11/21 06:04:19;;;;;;;25.35;12.95;;;;;;;;;;5066179;28;20048;-73
2021/11/21 06:06:45;;;;;;;24.60;12.25;;;;;;;;;;5061285;28;20754;-73
2021/11/21 06:09:11;;;;;;;21.85;12.30;;;;;;;;;;5068217;28;20052;-73
2021/11/21 06:11:38;;;;;;;23.85;11.52;;;;;;;;;;5043663;28;20413;-73
2021/11/21 06:14:04;;;;;;;22.08;12.23;;;;;;;;;;5063346;28;20139;-73
2021/11/21 06:16:30;;;;;;;21.60;11.32;;;;;;;;;;5063317;28;20056;-73
2021/11/21 06:18:57;;;;;;;26.23;11.93;;;;;;;;;;5042706;28;20482;-73
2021/11/21 06:21:23;;;;;;;22.60;12.30;;;;;;;;;;5067237;28;20417;-73
2021/11/21 06:23:49;;;;;;;18.08;9.73;;;;;;;;;;5042939;28;20135;-73
2021/11/21 06:26:17;;;;;;;19.00;9.90;;;;;;;;;;5068141;28;20075;-73
2021/11/21 06:28:43;;;;;;;19.33;10.20;;;;;;;;;;5056292;28;20124;-73
2021/11/21 06:31:09;;;;;;;17.58;9.85;;;;;;;;;;5063270;28;20044;-73
2021/11/21 06:33:36;;;;;;;18.52;10.60;;;;;;;;;;5067400;28;20048;-73
2021/11/21 06:36:02;;;;;;;19.20;10.27;;;;;;;;;;5061457;28;20119;-74
2021/11/21 06:38:32;;;;;;;18.92;10.27;;;;;;;;;;5068244;28;20049;-73
2021/11/21 06:40:59;;;;;;;19.02;9.77;;;;;;;;;;5060196;28;20049;-74
2021/11/21 06:43:28;;;;;;;21.63;10.68;;;;;;;;;;5062730;28;20053;-74
2021/11/21 06:45:54;;;;;;;17.45;9.40;;;;;;;;;;5057884;28;20046;-74
2021/11/21 06:48:21;;;;;;;19.67;9.50;;;;;;;;;;5067721;28;20528;-74
2021/11/21 06:50:51;;;;;;;18.58;9.50;;;;;;;;;;5065286;28;20049;-74
2021/11/21 06:53:18;;;;;;;19.80;9.75;;;;;;;;;;5042170;28;20052;-74
2021/11/21 06:55:44;;;;;;;16.50;8.80;;;;;;;;;;5064973;28;20053;-74
2021/11/21 06:58:10;;;;;;;22.05;11.02;;;;;;;;;;5054544;28;20116;-73
2021/11/21 07:00:37;;;;;;;15.75;9.25;;;;;;;;;;5062384;28;20056;-74
2021/11/21 07:03:03;;;;;;;17.67;9.07;;;;;;;;;;5041332;28;20053;-73
2021/11/21 07:05:30;;;;;;;16.83;8.57;;;;;;;;;;5045800;28;20390;-74
2021/11/21 07:07:57;;;;;;;14.70;8.02;;;;;;;;;;5046712;28;20083;-74
2021/11/21 07:10:24;;;;;;;18.38;9.13;;;;;;;;;;5035989;28;20041;-73
2021/11/21 07:12:50;;;;;;;18.17;9.15;;;;;;;;;;5046203;28;20359;-74
2021/11/21 07:15:16;;;;;;;19.60;9.27;;;;;;;;;;5044670;28;20048;-73
2021/11/21 07:17:44;;;;;;;16.80;9.23;;;;;;;;;;5070255;28;20106;-73
2021/11/21 07:20:15;;;;;;;17.20;9.25;;;;;;;;;;5064072;28;20054;-74
2021/11/21 07:22:43;;;;;;;15.68;9.32;;;;;;;;;;5070434;28;20049;-73
2021/11/21 07:25:09;;;;;;;15.80;8.52;;;;;;;;;;5059419;28;20048;-74
2021/11/21 07:27:35;;;;;;;14.55;8.63;;;;;;;;;;5045775;28;20520;-74
2021/11/21 07:30:02;;;;;;;16.23;8.68;;;;;;;;;;5050890;28;20056;-74
2021/11/21 07:32:28;;;;;;;13.95;8.00;;;;;;;;;;5044220;28;20059;-74
2021/11/21 07:34:54;;;;;;;15.52;7.90;;;;;;;;;;5049088;28;20405;-74
2021/11/21 07:37:21;;;;;;;15.63;8.48;;;;;;;;;;5041882;28;20045;-74
2021/11/21 07:39:47;;;;;;;14.10;8.00;;;;;;;;;;5044503;28;20060;-74
2021/11/21 07:42:13;;;;;;;13.55;6.97;;;;;;;;;;5044968;28;20052;-74
2021/11/21 07:44:40;;;;;;;14.73;7.07;;;;;;;;;;5049255;28;20049;-74
2021/11/21 07:47:06;;;;;;;13.55;6.63;;;;;;;;;;5050462;28;20068;-73
2021/11/21 07:49:32;;;;;;;15.35;6.72;;;;;;;;;;5043574;28;20445;-73
2021/11/21 07:51:59;;;;;;;13.05;7.35;;;;;;;;;;5044095;28;20046;-74
2021/11/21 07:54:26;;;;;;;14.00;6.20;;;;;;;;;;5043246;28;20789;-74
2021/11/21 07:56:52;;;;;;;13.95;5.63;;;;;;;;;;5060846;28;20158;-74
2021/11/21 07:59:18;;;;;;;15.55;6.47;;;;;;;;;;5043767;28;20152;-73
2021/11/21 08:01:46;;;;;;;12.85;5.25;;;;;;;;;;5049534;28;20432;-73
2021/11/21 08:04:13;;;;;;;9.68;5.05;;;;;;;;;;5052253;28;20112;-74
2021/11/21 08:06:39;;;;;;;11.30;5.28;;;;;;;;;;5038500;28;20049;-74
2021/11/21 08:09:06;;;;;;;9.68;4.75;;;;;;;;;;5046007;28;20996;-74
2021/11/21 08:11:32;;;;;;;13.85;5.65;;;;;;;;;;5043398;28;20124;-74
2021/11/21 08:13:59;;;;;;;15.52;6.03;;;;;;;;;;5046360;28;20060;-74
2021/11/21 08:16:25;;;;;;;13.27;5.43;;;;;;;;;;5064260;28;20048;-73
2021/11/21 08:18:51;;;;;;;10.55;4.95;;;;;;;;;;5067214;28;20049;-74
2021/11/21 08:21:18;;;;;;;14.50;4.88;;;;;;;;;;5052857;28;20045;-74
2021/11/21 08:23:44;;;;;;;13.02;4.70;;;;;;;;;;5044471;28;20052;-73
2021/11/21 08:26:11;;;;;;;9.25;3.60;;;;;;;;;;5047628;28;20045;-74
2021/11/21 08:28:39;;;;;;;7.47;2.53;;;;;;;;;;5042669;28;20052;-74
2021/11/21 08:31:06;;;;;;;11.50;3.33;;;;;;;;;;5047981;28;20060;-74
2021/11/21 08:33:33;;;;;;;10.27;2.80;;;;;;;;;;5038253;28;20571;-73
2021/11/21 08:35:59;;;;;;;7.18;2.13;;;;;;;;;;5044664;28;20558;-73
2021/11/21 08:38:26;;;;;;;7.55;2.10;;;;;;;;;;5048508;28;20145;-74
2021/11/21 08:40:53;;;;;;;11.77;2.75;;;;;;;;;;5041767;28;20292;-73
2021/11/21 08:43:19;;;;;;;10.85;2.20;;;;;;;;;;5049058;28;20061;-74
2021/11/21 08:45:46;;;;;;;10.20;2.15;;;;;;;;;;5042379;28;20486;-73
2021/11/21 08:48:13;;;;;;;14.82;2.40;;;;;;;;;;5044320;28;20063;-73
2021/11/21 08:50:39;;;;;;;6.82;1.48;;;;;;;;;;5038036;28;20528;-73
2021/11/21 08:53:06;;;;;;;8.90;1.85;;;;;;;;;;5048985;28;20053;-74
2021/11/21 08:55:32;;;;;;;7.97;1.58;;;;;;;;;;5062418;28;20053;-74
2021/11/21 08:57:58;;;;;;;7.15;2.00;;;;;;;;;;5044826;28;20167;-74
2021/11/21 09:00:25;;;;;;;7.22;1.40;;;;;;;;;;5045240;28;20091;-74
2021/11/21 09:02:51;;;;;;;5.93;1.00;;;;;;;;;;5036658;28;20053;-73
2021/11/21 09:05:20;;;;;;;7.35;2.03;;;;;;;;;;5047960;28;20055;-74
2021/11/21 09:08:06;;;;;;;11.43;1.60;;;;;;;;;;5042181;28;20060;-73
2021/11/21 09:10:33;;;;;;;11.57;1.90;;;;;;;;;;5048283;28;20044;-73
2021/11/21 09:12:59;;;;;;;10.65;1.83;;;;;;;;;;5048996;28;20122;-74
2021/11/21 09:15:25;;;;;;;9.85;1.52;;;;;;;;;;5064027;28;20052;-74
2021/11/21 09:17:53;;;;;;;7.00;1.30;;;;;;;;;;5063597;28;20602;-74
2021/11/21 09:20:20;;;;;;;6.68;1.42;;;;;;;;;;5061488;28;20059;-73
2021/11/21 09:22:46;;;;;;;11.27;1.67;;;;;;;;;;5067382;28;20068;-73
2021/11/21 09:25:13;;;;;;;8.73;1.15;;;;;;;;;;5061758;28;20049;-74
2021/11/21 09:27:39;;;;;;;10.23;1.33;;;;;;;;;;5066521;28;20139;-74
2021/11/21 09:30:07;;;;;;;8.32;1.67;;;;;;;;;;5038530;28;20057;-73
2021/11/21 09:32:34;;;;;;;12.52;1.52;;;;;;;;;;5048179;28;20052;-73
2021/11/21 09:35:01;;;;;;;11.43;1.10;;;;;;;;;;5049208;28;20136;-73
2021/11/21 09:37:28;;;;;;;10.98;1.50;;;;;;;;;;5041643;28;20151;-74
2021/11/21 09:39:54;;;;;;;7.90;1.92;;;;;;;;;;5048027;28;20059;-73
2021/11/21 09:42:20;;;;;;;9.73;1.20;;;;;;;;;;5036975;28;20052;-73
2021/11/21 09:44:47;;;;;;;9.65;1.88;;;;;;;;;;5043606;28;20056;-73
2021/11/21 09:47:13;;;;;;;7.85;1.38;;;;;;;;;;5041626;28;20370;-73
2021/11/21 09:49:40;;;;;;;10.85;1.40;;;;;;;;;;5047250;28;20048;-73
2021/11/21 09:52:06;;;;;;;17.50;2.75;;;;;;;;;;5045915;28;20052;-73
2021/11/21 09:54:32;;;;;;;8.30;1.60;;;;;;;;;;5046678;28;20056;-73
2021/11/21 09:56:59;;;;;;;12.57;3.05;;;;;;;;;;5047158;28;20045;-73
2021/11/21 09:59:44;;;;;;;11.05;2.80;;;;;;;;;;5036457;28;20044;-73
2021/11/21 10:02:19;;;;;;;13.63;1.83;;;;;;;;;;5062580;28;20044;-73
2021/11/21 10:04:45;;;;;;;9.43;1.30;;;;;;;;;;5060596;28;20055;-73
2021/11/21 10:07:19;;;;;;;14.68;1.40;;;;;;;;;;5049610;28;20052;-73
2021/11/21 10:09:45;;;;;;;12.15;1.70;;;;;;;;;;5044970;28;20063;-73
2021/11/21 10:12:11;;;;;;;10.45;1.50;;;;;;;;;;5058436;28;20037;-73
2021/11/21 10:14:55;;;;;;;12.32;2.40;;;;;;;;;;5066182;28;20052;-73
2021/11/21 10:17:28;;;;;;;7.90;1.33;;;;;;;;;;5060185;28;20045;-73
2021/11/21 10:20:30;;;;;;;10.45;1.92;;;;;;;;;;5066881;28;20053;-72
2021/11/21 10:23:01;;;;;;;7.85;1.10;;;;;;;;;;4979735;28;20051;-73
2021/11/21 10:25:33;;;;;;;11.60;1.88;;;;;;;;;;4981362;28;20046;-73
2021/11/21 10:28:14;;;;;;;13.88;1.50;;;;;;;;;;4974771;28;20058;-73
2021/11/21 10:30:59;;;;;;;7.63;1.42;;;;;;;;;;4985324;28;20047;-75
2021/11/21 10:33:33;;;;;;;8.57;1.65;;;;;;;;;;4979382;28;20067;-73
2021/11/21 10:36:03;;;;;;;10.13;1.33;;;;;;;;;;4985584;28;20062;-73
2021/11/21 10:38:31;;;;;;;11.00;1.30;;;;;;;;;;4974078;28;20579;-76
2021/11/21 10:40:58;;;;;;;10.35;1.50;;;;;;;;;;4980383;28;20062;-73
2021/11/21 10:43:24;;;;;;;10.68;2.22;;;;;;;;;;4985175;28;20051;-72
2021/11/21 10:45:50;;;;;;;11.82;1.77;;;;;;;;;;4978005;28;20083;-73
2021/11/21 10:48:23;;;;;;;11.80;1.70;;;;;;;;;;4985988;28;20061;-73
2021/11/21 10:50:51;;;;;;;10.15;1.77;;;;;;;;;;4979928;28;20065;-73
2021/11/21 10:53:19;;;;;;;11.15;1.85;;;;;;;;;;4983475;28;20277;-73
2021/11/21 10:55:45;;;;;;;9.65;1.60;;;;;;;;;;4996478;28;20058;-73
2021/11/21 10:58:13;;;;;;;8.70;1.38;;;;;;;;;;5069724;28;20051;-73
2021/11/21 11:00:39;;;;;;;9.85;1.77;;;;;;;;;;5070919;28;20071;-73
2021/11/21 11:03:19;;;;;;;11.30;1.60;;;;;;;;;;5064678;28;20135;-73
2021/11/21 11:05:46;;;;;;;12.60;2.15;;;;;;;;;;5066124;28;20049;-74
2021/11/21 11:08:23;;;;;;;14.73;1.80;;;;;;;;;;5063515;28;20211;-76
2021/11/21 11:10:50;;;;;;;11.63;1.70;;;;;;;;;;5070442;28;20045;-75
2021/11/21 11:13:17;;;;;;;13.50;2.42;;;;;;;;;;5053409;28;20053;-74
2021/11/21 11:15:45;;;;;;;14.60;2.47;;;;;;;;;;5070682;28;20059;-74
2021/11/21 11:18:13;;;;;;;12.85;1.85;;;;;;;;;;5059798;28;20056;-75
2021/11/21 11:20:47;;;;;;;14.65;2.72;;;;;;;;;;5065142;28;20057;-75
2021/11/21 11:23:15;;;;;;;16.48;2.08;;;;;;;;;;5070198;28;20067;-75
2021/11/21 11:25:43;;;;;;;11.52;1.40;;;;;;;;;;5045513;28;20048;-75
2021/11/21 11:28:10;;;;;;;;;;;;;;;;;;5051298;28;20785;-75
2021/11/21 11:30:37;;;;;;;9.00;1.27;;;;;;;;;;5043936;28;20317;-75
2021/11/21 11:33:14;;;;;;;13.82;2.15;;;;;;;;;;5045957;28;20539;-75
2021/11/21 11:35:41;;;;;;;9.32;1.60;;;;;;;;;;5039605;28;20277;-75
2021/11/21 11:38:09;;;;;;;9.90;2.05;;;;;;;;;;5033203;28;20421;-75
2021/11/21 11:40:45;;;;;;;10.65;1.55;;;;;;;;;;5049398;28;20059;-75
2021/11/21 11:43:23;;;;;;;12.18;1.75;;;;;;;;;;5049410;28;20056;-75
2021/11/21 11:45:51;;;;;;;10.43;2.05;;;;;;;;;;5045723;28;20489;-75
2021/11/21 11:48:33;;;;;;;13.40;2.83;;;;;;;;;;5037871;28;20060;-75
2021/11/21 11:51:00;;;;;;;9.45;2.45;;;;;;;;;;5046807;28;20049;-74
2021/11/21 11:53:36;;;;;;;8.50;1.73;;;;;;;;;;5043205;28;20049;-74
2021/11/21 11:56:08;;;;;;;8.63;1.75;;;;;;;;;;5058759;28;20044;-75
2021/11/21 11:58:44;;;;;;;16.70;1.77;;;;;;;;;;5043503;28;20056;-75
2021/11/21 12:01:11;;;;;;;8.02;1.50;;;;;;;;;;5050693;28;20513;-75
2021/11/21 12:03:39;;;;;;;10.65;1.33;;;;;;;;;;5059573;28;20469;-75
2021/11/21 12:06:06;;;;;;;6.60;1.25;;;;;;;;;;5056211;28;20041;-74
2021/11/21 12:08:32;;;;;;;4.45;0.90;;;;;;;;;;5050310;28;20393;-75
2021/11/21 12:10:59;;;;;;;10.82;1.10;;;;;;;;;;5044106;28;20488;-75
2021/11/21 12:13:30;;;;;;;8.65;0.95;;;;;;;;;;5056599;28;20469;-75
2021/11/21 12:15:59;;;;;;;6.85;0.90;;;;;;;;;;5056623;28;20053;-75
2021/11/21 12:18:44;;;;;;;7.07;1.13;;;;;;;;;;5069109;28;20481;-75
2021/11/21 12:21:10;;;;;;;7.20;1.25;;;;;;;;;;5063133;28;20051;-75
2021/11/21 12:23:40;;;;;;;9.60;1.83;;;;;;;;;;5063463;28;20549;-75
2021/11/21 12:26:20;;;;;;;5.32;1.08;;;;;;;;;;5043448;28;20060;-75
2021/11/21 12:29:09;;;;;;;6.28;1.00;;;;;;;;;;5043494;28;20041;-75
2021/11/21 12:31:41;;;;;;;9.52;1.60;;;;;;;;;;5031875;28;20052;-75
2021/11/21 12:34:27;;;;;;;9.80;2.05;;;;;;;;;;5048975;28;20051;-75
2021/11/21 12:37:09;;;;;;;9.45;1.33;;;;;;;;;;5048570;28;20068;-75
2021/11/21 12:39:36;;;;;;;3.10;0.73;;;;;;;;;;5048084;28;20414;-75
2021/11/21 12:42:13;;;;;;;7.13;0.73;;;;;;;;;;5049773;28;20055;-75
2021/11/21 12:44:40;;;;;;;9.60;0.90;;;;;;;;;;5037573;28;20052;-75
2021/11/21 12:47:07;;;;;;;11.90;1.23;;;;;;;;;;5061889;28;20052;-75
2021/11/21 12:49:33;;;;;;;12.43;1.13;;;;;;;;;;5043306;28;20053;-75
2021/11/21 12:52:20;;;;;;;7.72;1.10;;;;;;;;;;5049941;28;20048;-75
2021/11/21 12:54:50;;;;;;;7.22;0.85;;;;;;;;;;5039133;28;20052;-75
2021/11/21 12:57:16;;;;;;;14.20;1.85;;;;;;;;;;5033168;28;20047;-75
2021/11/21 12:59:52;;;;;;;7.35;0.80;;;;;;;;;;5053873;28;20055;-74
2021/11/21 13:02:20;;;;;;;10.57;1.00;;;;;;;;;;5055261;28;20048;-75
2021/11/21 13:04:47;;;;;;;;;;;;;;;;;;5053858;28;20045;-75
2021/11/21 13:07:25;;;;;;;7.82;0.90;;;;;;;;;;5052118;28;19928;-74
2021/11/21 13:09:51;;;;;;;;;;;;;;;;;;5051808;28;20048;-73
2021/11/21 13:12:24;;;;;;;8.95;1.55;;;;;;;;;;5049236;28;20436;-75
2021/11/21 13:14:55;;;;;;;10.68;1.70;;;;;;;;;;5056075;28;20491;-73
2021/11/21 13:17:21;;;;;;;5.75;1.48;;;;;;;;;;5048612;28;20063;-74
2021/11/21 13:19:59;;;;;;;8.23;1.50;;;;;;;;;;5056593;28;20051;-74
2021/11/21 13:22:59;;;;;;;9.82;1.48;;;;;;;;;;5046152;28;20574;-73
2021/11/21 13:25:27;;;;;;;5.75;1.08;;;;;;;;;;5025879;28;20040;-72
2021/11/21 13:28:13;;;;;;;4.90;1.00;;;;;;;;;;5056712;28;20502;-73
2021/11/21 13:30:40;;;;;;;5.50;1.17;;;;;;;;;;5014516;28;20055;-74
2021/11/21 13:33:20;;;;;;;7.20;0.70;;;;;;;;;;5056384;28;20521;-71
2021/11/21 13:35:52;;;;;;;10.13;1.23;;;;;;;;;;5043481;28;20286;-72
2021/11/21 13:38:19;;;;;;;9.07;0.82;;;;;;;;;;5035085;28;20075;-73
2021/11/21 13:40:46;;;;;;;8.67;1.13;;;;;;;;;;5047843;28;20074;-72
2021/11/21 13:43:12;;;;;;;9.18;1.10;;;;;;;;;;5054510;28;20051;-71
2021/11/21 13:45:39;;;;;;;7.25;0.77;;;;;;;;;;5048057;28;20291;-72
2021/11/21 13:48:24;;;;;;;7.03;1.00;;;;;;;;;;5054374;28;20052;-72
2021/11/21 13:50:50;;;;;;;7.82;0.90;;;;;;;;;;5049607;28;20052;-72
2021/11/21 13:53:17;;;;;;;11.70;1.33;;;;;;;;;;5047539;28;20067;-72
2021/11/21 13:55:43;;;;;;;10.35;1.60;;;;;;;;;;5054960;28;20041;-72
2021/11/21 13:58:23;;;;;;;10.45;2.20;;;;;;;;;;5045620;28;20048;-73
2021/11/21 14:00:49;;;;;;;6.70;0.90;;;;;;;;;;5055813;28;20052;-73
2021/11/21 14:03:19;;;;;;;13.38;1.63;;;;;;;;;;5044220;28;20052;-72
2021/11/21 14:05:46;;;;;;;9.98;1.05;;;;;;;;;;5048674;28;20059;-72
2021/11/21 14:08:13;;;;;;;7.63;1.17;;;;;;;;;;5029824;28;20392;-72
2021/11/21 14:10:41;;;;;;;7.57;1.10;;;;;;;;;;5053200;28;20048;-72
2021/11/21 14:13:08;;;;;;;8.52;1.50;;;;;;;;;;5050126;28;20044;-71
2021/11/21 14:15:34;;;;;;;5.97;1.10;;;;;;;;;;5047679;28;20045;-72
2021/11/21 14:18:01;;;;;;;8.18;1.23;;;;;;;;;;5050710;28;20060;-71
2021/11/21 14:20:57;;;;;;;9.32;1.02;;;;;;;;;;5043300;28;20055;-74
2021/11/21 14:23:24;;;;;;;8.52;1.50;;;;;;;;;;5055583;28;20044;-74
2021/11/21 14:25:52;;;;;;;9.38;1.25;;;;;;;;;;5050516;28;20090;-75
2021/11/21 14:28:23;;;;;;;10.57;1.30;;;;;;;;;;5058411;28;20052;-75
2021/11/21 14:30:56;;;;;;;7.78;0.75;;;;;;;;;;5036565;28;20058;-74
2021/11/21 14:33:26;;;;;;;9.45;0.90;;;;;;;;;;5053669;28;20049;-74
2021/11/21 14:35:55;;;;;;;7.30;1.25;;;;;;;;;;5059696;28;20161;-76